WetterOnline ( https://www.wetteronline.de )

Wetter aktuell Jokkmokk

Aktuelles Wetter: Jokkmokk (275m)

6-stündlich | Neueste Meldungen
Ortszeit Temperatur Wetter
So, 26.06. 2:00 15.2° C wolkenlos
Sa, 25.06. 20:00 22.9° C wolkenlos
Sa, 25.06. 14:00 26.3° C leicht bewölkt
Sa, 25.06. 8:00 18.9° C wolkenlos
Sa, 25.06. 2:00 10.1° C wolkenlos
Fr, 24.06. 20:00 21.3° C wolkenlos
Fr, 24.06. 14:00 18.1° C bewölkt
Fr, 24.06. 8:00 14.9° C wolkig
Ortszeit Temperatur Wetter
So, 26.06. 7:00 20.7° C leicht bewölkt
So, 26.06. 6:00 18.8° C wolkig
So, 26.06. 5:00 16.6° C wolkenlos
So, 26.06. 4:00 14.6° C wolkenlos
So, 26.06. 3:00 14.5° C wolkenlos
So, 26.06. 2:00 15.2° C wolkenlos
Ortszeit Relative Feuchte Sichtweite
So, 26.06. 2:00 90% 30 km
Sa, 25.06. 20:00 55% 50 km
Sa, 25.06. 14:00 44% 35 km
Sa, 25.06. 8:00 63% 45 km
Sa, 25.06. 2:00 90% 50 km
Fr, 24.06. 20:00 38% 45 km
Fr, 24.06. 14:00 50% 45 km
Fr, 24.06. 8:00 57% 50 km
Ortszeit Relative Feuchte Sichtweite
So, 26.06. 7:00 68% 45 km
So, 26.06. 6:00 79% 40 km
So, 26.06. 5:00 87% 35 km
So, 26.06. 4:00 91% 24 km
So, 26.06. 3:00 93% 26 km
So, 26.06. 2:00 90% 30 km
Ortszeit Niederschlagsmenge Niederschlagsart
So, 26.06. 2:00 0.0 l/m2 in 6 Std. -
Sa, 25.06. 20:00 0.0 l/m2 in 12 Std. -
Sa, 25.06. 14:00 0.0 l/m2 in 6 Std. -
Sa, 25.06. 8:00 0.0 l/m2 in 12 Std. -
Sa, 25.06. 2:00 0.0 l/m2 in 6 Std. -
Fr, 24.06. 20:00 0.0 l/m2 in 12 Std. -
Fr, 24.06. 14:00 0.0 l/m2 in 6 Std. -
Fr, 24.06. 8:00 0.0 l/m2 in 12 Std. -
Ortszeit Niederschlagsmenge Niederschlagsart
So, 26.06. 7:00 0.0 l/m2 in 1 Std. -
So, 26.06. 6:00 0.0 l/m2 in 1 Std. -
So, 26.06. 5:00 0.0 l/m2 in 1 Std. -
So, 26.06. 4:00 0.0 l/m2 in 1 Std. -
So, 26.06. 3:00 0.0 l/m2 in 1 Std. -
So, 26.06. 2:00 0.0 l/m2 in 1 Std. -
Ortszeit Stärke Spitze Richtung
km/h Bft. km/h Grad Sektor
So, 26.06. 2:00 4 1 - 320° NW
Sa, 25.06. 20:00 14 3 29 130° SO
Sa, 25.06. 14:00 22 4 - 130° SO
Sa, 25.06. 8:00 7 2 11 90° O
Sa, 25.06. 2:00 4 1 - 250° W
Fr, 24.06. 20:00 4 1 14 340° N
Fr, 24.06. 14:00 14 3 - 290° W
Fr, 24.06. 8:00 14 3 29 280° W
Ortszeit Stärke Spitze Richtung
km/h Bft. km/h Grad Sektor
So, 26.06. 7:00 11 2 14 310° NW
So, 26.06. 6:00 7 2 14 290° W
So, 26.06. 5:00 7 2 11 330° NW
So, 26.06. 4:00 4 1 7 310° NW
So, 26.06. 3:00 4 1 7 160° S
So, 26.06. 2:00 4 1 11 320° NW
Ortszeit Untergrenze Bedeckung Gattung
total tief tief mittel hoch
So, 26.06. 2:00 - 0/8 0/8 - - -
Sa, 25.06. 20:00 - 0/8 0/8 - - -
Sa, 25.06. 14:00 4200 m 2/8 2/8 - - -
Sa, 25.06. 8:00 - 0/8 0/8 - - -
Sa, 25.06. 2:00 - 0/8 0/8 - - -
Fr, 24.06. 20:00 - 0/8 0/8 - - -
Fr, 24.06. 14:00 1500 m 7/8 7/8 - - -
Fr, 24.06. 8:00 1380 m 5/8 5/8 - - -
Ortszeit Bedeckungsgrad in Achtel und Wolkenuntergrenze
So, 26.06. 7:00 3(4500m)
So, 26.06. 6:00 6(3900m)
So, 26.06. 5:00 keine Wolken
So, 26.06. 4:00 keine Wolken
So, 26.06. 3:00 keine Wolken
So, 26.06. 2:00 keine Wolken
Ortszeit Luftdruck NN (hPa) Tendenz (hPa in 3 Std.)
So, 26.06. 2:00 1015 + 0,5
Sa, 25.06. 20:00 1013 + 0,3
Sa, 25.06. 14:00 1013 - 0,8
Sa, 25.06. 8:00 1015 0,0
Sa, 25.06. 2:00 1015 + 0,6
Fr, 24.06. 20:00 1013 + 0,2
Fr, 24.06. 14:00 1012 + 0,8
Fr, 24.06. 8:00 1011 + 1,5
Ortszeit Luftdruck NN (hPa) Tendenz (hPa in 3 Std.)
So, 26.06. 7:00 1017 + 1,4
So, 26.06. 6:00 1016 + 1,5
So, 26.06. 5:00 1016 + 1,3
So, 26.06. 4:00 1016 + 1,0
So, 26.06. 3:00 1015 + 0,6
So, 26.06. 2:00 1015 + 0,5
Ortszeit Schneehöhe (cm)
So, 26.06. 2:00 -
Sa, 25.06. 20:00 -
Sa, 25.06. 14:00 -
Sa, 25.06. 8:00 -
Sa, 25.06. 2:00 -
Fr, 24.06. 20:00 -
Fr, 24.06. 14:00 -
Fr, 24.06. 8:00 -
Ortszeit Schneehöhe (cm)
So, 26.06. 7:00 -
So, 26.06. 6:00 -
So, 26.06. 5:00 -
So, 26.06. 4:00 -
So, 26.06. 3:00 -
So, 26.06. 2:00 -
Link zu dieser Seite / Seite empfehlen

Das Wetter in ...